Time;durP1;ratioP1;P1;durP2;ratioP2;P2;SDS_P1;SDS_P2;PMS_P1;PMS_P2;Temp;Humidity;BMP_temperature;BMP_pressure;BME280_temperature;BME280_humidity;BME280_pressure;Samples;Min_cycle;Max_cycle;Signal;HPM_P1;HPM_P2
2020/12/03 00:00:56;;;;;;;2.88;1.90;;;21.20;48.40;;;;;;5126010;27;20415;-49
2020/12/03 00:03:31;;;;;;;3.30;2.00;;;21.20;48.50;;;;;;5119720;27;20036;-48
2020/12/03 00:06:07;;;;;;;2.92;1.92;;;21.20;48.50;;;;;;5131868;27;20023;-49
2020/12/03 00:08:37;;;;;;;3.47;2.08;;;21.20;48.50;;;;;;5124555;27;20137;-52
2020/12/03 00:11:03;;;;;;;2.63;2.00;;;21.20;48.50;;;;;;5106907;27;20055;-46
2020/12/03 00:13:34;;;;;;;4.07;2.50;;;21.10;48.50;;;;;;5116539;27;20038;-48
2020/12/03 00:16:00;;;;;;;4.72;2.00;;;21.10;48.50;;;;;;5117936;27;20489;-50
2020/12/03 00:18:32;;;;;;;2.90;2.15;;;21.10;48.50;;;;;;5108191;28;20023;-54
2020/12/03 00:20:59;;;;;;;2.60;1.80;;;21.10;48.50;;;;;;5119625;27;20027;-47
2020/12/03 00:23:24;;;;;;;2.53;1.90;;;21.10;48.50;;;;;;5120470;27;20059;-49
2020/12/03 00:25:52;;;;;;;3.00;2.10;;;21.10;48.50;;;;;;5136325;27;20049;-53
2020/12/03 00:28:18;;;;;;;2.75;2.10;;;21.00;48.50;;;;;;5126677;27;20119;-48
2020/12/03 00:30:47;;;;;;;3.15;2.10;;;21.00;48.50;;;;;;5112322;27;20461;-52
2020/12/03 00:33:17;;;;;;;3.15;2.20;;;21.00;48.50;;;;;;5124688;27;20027;-49
2020/12/03 00:35:50;;;;;;;3.15;1.90;;;21.00;48.50;;;;;;5144242;27;20031;-50
2020/12/03 00:38:18;;;;;;;3.22;2.13;;;21.00;48.50;;;;;;5125348;27;20043;-50
2020/12/03 00:40:44;;;;;;;2.80;1.83;;;21.00;48.50;;;;;;5114185;27;20024;-55
2020/12/03 00:43:10;;;;;;;3.00;2.10;;;21.00;48.50;;;;;;5123294;27;20019;-52
2020/12/03 00:45:35;;;;;;;3.30;2.20;;;21.00;48.40;;;;;;5136526;27;20069;-50
2020/12/03 00:48:01;;;;;;;3.08;2.10;;;20.90;48.30;;;;;;5142757;27;20114;-50
2020/12/03 00:50:27;;;;;;;3.17;2.10;;;20.90;48.40;;;;;;5121690;27;20112;-49
2020/12/03 00:52:52;;;;;;;2.70;2.00;;;20.90;48.50;;;;;;5115756;27;20462;-49
2020/12/03 00:55:18;;;;;;;3.80;2.00;;;20.90;48.40;;;;;;5139427;27;20099;-49
2020/12/03 00:57:44;;;;;;;3.05;2.00;;;20.90;48.40;;;;;;5130763;27;20050;-47
2020/12/03 01:00:12;;;;;;;3.05;1.80;;;20.80;48.50;;;;;;5120889;27;20173;-49
2020/12/03 01:02:39;;;;;;;3.03;2.10;;;20.90;48.50;;;;;;5114824;27;20027;-54
2020/12/03 01:05:07;;;;;;;3.20;2.00;;;20.80;48.40;;;;;;5121559;27;20755;-51
2020/12/03 01:07:33;;;;;;;2.85;2.15;;;20.80;48.40;;;;;;5122386;27;20206;-54
2020/12/03 01:09:58;;;;;;;2.83;2.03;;;20.80;48.40;;;;;;5124798;27;20031;-48
2020/12/03 01:12:24;;;;;;;2.83;1.90;;;20.80;48.50;;;;;;5123735;27;20041;-52
2020/12/03 01:14:50;;;;;;;3.00;2.15;;;20.80;48.50;;;;;;5124611;27;20385;-54
2020/12/03 01:17:16;;;;;;;3.00;2.00;;;20.70;49.00;;;;;;5128236;27;20084;-52
2020/12/03 01:19:42;;;;;;;2.88;1.80;;;20.70;48.40;;;;;;5125751;27;20075;-52
2020/12/03 01:22:09;;;;;;;3.30;2.13;;;20.70;48.30;;;;;;5110491;27;20050;-50
2020/12/03 01:24:35;;;;;;;2.95;2.10;;;20.70;48.40;;;;;;5129701;27;20026;-51
2020/12/03 01:27:01;;;;;;;3.05;2.20;;;20.70;48.40;;;;;;5122777;27;20205;-50
2020/12/03 01:29:27;;;;;;;2.67;1.98;;;20.70;48.40;;;;;;5126194;27;20041;-50
2020/12/03 01:31:53;;;;;;;3.35;2.15;;;20.70;48.50;;;;;;5117073;27;20023;-49
2020/12/03 01:34:20;;;;;;;2.70;2.00;;;20.70;48.50;;;;;;5129277;27;20035;-51
2020/12/03 01:36:52;;;;;;;2.80;1.90;;;20.60;48.40;;;;;;5128731;27;20031;-52
2020/12/03 01:39:19;;;;;;;2.95;2.08;;;20.60;48.50;;;;;;5130647;27;20031;-55
2020/12/03 01:41:45;;;;;;;2.88;2.00;;;20.60;48.50;;;;;;5112875;27;20039;-50
2020/12/03 01:44:12;;;;;;;3.03;1.92;;;20.60;48.50;;;;;;5124702;27;20030;-51
2020/12/03 01:46:38;;;;;;;2.83;2.03;;;20.60;48.60;;;;;;5116632;27;20034;-54
2020/12/03 01:49:17;;;;;;;3.10;2.10;;;20.60;48.60;;;;;;5134229;27;20099;-50
2020/12/03 01:51:51;;;;;;;3.22;2.15;;;20.60;48.60;;;;;;5110836;27;20430;-49
2020/12/03 01:54:19;;;;;;;2.70;2.00;;;20.50;48.60;;;;;;5134298;27;20023;-53
2020/12/03 01:57:03;;;;;;;2.42;1.77;;;20.50;48.50;;;;;;5143019;27;20348;-50
2020/12/03 01:59:42;;;;;;;2.80;2.00;;;20.50;48.60;;;;;;5121911;27;20046;-48
2020/12/03 02:02:11;;;;;;;2.92;2.05;;;20.50;49.10;;;;;;5119459;27;20466;-49
2020/12/03 02:04:37;;;;;;;3.35;2.08;;;20.50;48.60;;;;;;5117822;27;20036;-53
2020/12/03 02:07:10;;;;;;;2.58;1.70;;;20.50;48.60;;;;;;5119321;27;20042;-51
2020/12/03 02:09:36;;;;;;;2.63;1.90;;;20.40;48.60;;;;;;5122855;27;20385;-51
2020/12/03 02:12:02;;;;;;;2.67;1.80;;;20.50;48.70;;;;;;5110394;28;20043;-56
2020/12/03 02:14:28;;;;;;;3.72;2.10;;;20.50;48.70;;;;;;5131731;27;20023;-54
2020/12/03 02:16:54;;;;;;;2.53;1.90;;;20.40;48.60;;;;;;5127762;27;20466;-52
2020/12/03 02:19:28;;;;;;;2.53;1.70;;;20.40;48.70;;;;;;5130581;27;20422;-54
2020/12/03 02:22:06;;;;;;;2.65;1.80;;;20.40;49.20;;;;;;5119888;27;20149;-49
2020/12/03 02:24:40;;;;;;;3.28;2.10;;;20.40;48.70;;;;;;5107444;27;20085;-55
2020/12/03 02:27:11;;;;;;;2.92;2.00;;;20.40;48.70;;;;;;5132111;27;20022;-47
2020/12/03 02:29:37;;;;;;;2.60;1.75;;;20.40;48.70;;;;;;5133671;27;20015;-48
2020/12/03 02:32:03;;;;;;;2.60;1.80;;;20.40;48.70;;;;;;5121084;27;20431;-50
2020/12/03 02:34:29;;;;;;;3.00;1.83;;;20.40;48.80;;;;;;5127520;27;20092;-54
2020/12/03 02:36:58;;;;;;;2.55;1.80;;;20.40;48.80;;;;;;5125339;27;20031;-55
2020/12/03 02:39:25;;;;;;;2.70;1.90;;;20.40;48.80;;;;;;5121853;27;20027;-53
2020/12/03 02:41:51;;;;;;;2.63;1.75;;;20.30;48.80;;;;;;5128920;27;20027;-56
2020/12/03 02:44:17;;;;;;;2.90;1.92;;;20.30;48.80;;;;;;5130702;27;20027;-50
2020/12/03 02:46:45;;;;;;;2.53;1.75;;;20.30;48.80;;;;;;5131378;27;20217;-47
2020/12/03 02:49:11;;;;;;;2.28;1.60;;;20.30;48.80;;;;;;5144034;27;20030;-48
2020/12/03 02:51:43;;;;;;;2.30;1.65;;;20.30;48.90;;;;;;5132430;27;20072;-52
2020/12/03 02:54:11;;;;;;;2.90;1.80;;;20.30;48.90;;;;;;5124318;27;20015;-51
2020/12/03 02:56:36;;;;;;;2.53;1.70;;;20.30;48.90;;;;;;5124849;27;20138;-53
2020/12/03 02:59:04;;;;;;;2.58;1.60;;;20.30;49.00;;;;;;5135134;27;20569;-50
2020/12/03 03:01:29;;;;;;;2.83;1.90;;;20.20;48.90;;;;;;5131049;27;20042;-56
2020/12/03 03:03:55;;;;;;;2.50;1.75;;;20.20;48.90;;;;;;5116184;27;20031;-48
2020/12/03 03:06:21;;;;;;;2.50;1.88;;;20.20;48.90;;;;;;5121755;27;20062;-51
2020/12/03 03:08:46;;;;;;;2.38;1.70;;;20.20;49.00;;;;;;5125714;27;20080;-52
2020/12/03 03:11:12;;;;;;;2.30;1.70;;;20.20;49.00;;;;;;5134608;27;20491;-48
2020/12/03 03:13:37;;;;;;;2.40;1.70;;;20.20;48.90;;;;;;5124827;27;20023;-49
2020/12/03 03:16:03;;;;;;;2.58;1.65;;;20.20;49.00;;;;;;5120779;27;20027;-53
2020/12/03 03:18:29;;;;;;;2.90;2.08;;;20.20;49.00;;;;;;5132438;27;20026;-47
2020/12/03 03:20:54;;;;;;;2.80;1.70;;;20.20;49.00;;;;;;5129171;27;20046;-51
2020/12/03 03:23:20;;;;;;;2.45;1.83;;;20.20;49.00;;;;;;5129210;27;20105;-47
2020/12/03 03:25:45;;;;;;;2.75;1.90;;;20.20;49.20;;;;;;5128655;27;20512;-52
2020/12/03 03:28:12;;;;;;;2.92;1.80;;;20.20;49.00;;;;;;5135793;27;20034;-47
2020/12/03 03:30:38;;;;;;;3.08;1.80;;;20.10;49.00;;;;;;5139025;27;20019;-53
2020/12/03 03:33:04;;;;;;;2.30;1.58;;;20.10;49.00;;;;;;5134706;27;20019;-54
2020/12/03 03:35:30;;;;;;;2.25;1.67;;;20.10;49.00;;;;;;5148116;27;20030;-50
2020/12/03 03:37:56;;;;;;;2.65;1.88;;;20.10;49.00;;;;;;5112043;27;20031;-49
2020/12/03 03:40:22;;;;;;;2.60;1.98;;;20.10;49.10;;;;;;5138595;27;20046;-49
2020/12/03 03:42:48;;;;;;;2.50;1.70;;;20.10;49.60;;;;;;5126663;27;20023;-54
2020/12/03 03:45:14;;;;;;;2.70;1.80;;;20.10;49.10;;;;;;5126789;27;20601;-48
2020/12/03 03:47:40;;;;;;;2.30;1.60;;;20.10;49.20;;;;;;5141629;27;20171;-49
2020/12/03 03:50:07;;;;;;;1.92;1.50;;;20.10;49.10;;;;;;5133290;27;20042;-51
2020/12/03 03:52:34;;;;;;;2.47;1.67;;;20.10;49.20;;;;;;5137454;27;20030;-54
2020/12/03 03:55:00;;;;;;;2.08;1.65;;;20.10;49.20;;;;;;5135007;27;20375;-49
2020/12/03 03:57:26;;;;;;;2.38;1.73;;;20.00;49.10;;;;;;5134790;27;20413;-48
2020/12/03 03:59:52;;;;;;;2.05;1.55;;;20.00;49.20;;;;;;5142295;27;20095;-49
2020/12/03 04:02:19;;;;;;;2.05;1.50;;;20.00;49.20;;;;;;5120021;27;20031;-52
2020/12/03 04:04:45;;;;;;;2.90;1.85;;;20.00;49.20;;;;;;5116438;27;20854;-49
2020/12/03 04:07:10;;;;;;;2.50;1.80;;;20.00;49.30;;;;;;5114452;27;20031;-50
2020/12/03 04:09:36;;;;;;;2.20;1.42;;;20.00;49.30;;;;;;5111650;27;20110;-50
2020/12/03 04:12:02;;;;;;;2.67;1.70;;;20.00;49.30;;;;;;5134156;27;20559;-55
2020/12/03 04:14:27;;;;;;;2.40;1.77;;;20.00;49.40;;;;;;5135181;27;20105;-55
2020/12/03 04:16:53;;;;;;;2.50;1.80;;;20.00;49.30;;;;;;5114493;27;20526;-54
2020/12/03 04:19:18;;;;;;;2.70;1.73;;;20.00;49.30;;;;;;5119580;27;20042;-53
2020/12/03 04:21:44;;;;;;;2.13;1.50;;;20.00;49.40;;;;;;5136345;27;20069;-56
2020/12/03 04:24:10;;;;;;;2.33;1.70;;;20.00;49.40;;;;;;5133703;27;20023;-54
2020/12/03 04:26:35;;;;;;;2.40;1.63;;;20.00;49.50;;;;;;5122626;27;20535;-51
2020/12/03 04:29:01;;;;;;;2.38;1.55;;;20.00;49.50;;;;;;5106764;27;20771;-52
2020/12/03 04:31:26;;;;;;;2.08;1.48;;;20.00;49.50;;;;;;5118744;27;20026;-48
2020/12/03 04:33:52;;;;;;;2.20;1.70;;;20.00;49.50;;;;;;5129860;27;20145;-51
2020/12/03 04:36:18;;;;;;;1.98;1.40;;;20.00;49.50;;;;;;5132431;27;20438;-54
2020/12/03 04:38:43;;;;;;;2.40;1.67;;;19.90;49.50;;;;;;5135653;27;20041;-53
2020/12/03 04:41:09;;;;;;;2.10;1.48;;;19.90;49.50;;;;;;5133991;27;20054;-52
2020/12/03 04:43:46;;;;;;;2.90;1.40;;;19.90;49.50;;;;;;5130497;27;20058;-55
2020/12/03 04:46:34;;;;;;;2.17;1.55;;;19.90;49.50;;;;;;5130014;27;20052;-52
2020/12/03 04:49:41;;;;;;;2.40;1.50;;;19.90;49.60;;;;;;5123765;27;20035;-53
2020/12/03 04:52:26;;;;;;;2.10;1.63;;;19.90;49.60;;;;;;5116579;27;20952;-52
2020/12/03 04:55:15;;;;;;;2.40;1.58;;;19.90;49.60;;;;;;5128456;27;20103;-59
2020/12/03 04:57:53;;;;;;;1.90;1.33;;;19.90;49.60;;;;;;5122869;27;20027;-52
2020/12/03 05:00:39;;;;;;;2.33;1.80;;;19.90;49.70;;;;;;5115703;27;20031;-53
2020/12/03 05:03:37;;;;;;;2.10;1.40;;;19.90;49.90;;;;;;5122357;27;20061;-50
2020/12/03 05:06:27;;;;;;;2.33;1.58;;;19.90;49.80;;;;;;5121178;27;20244;-55
2020/12/03 05:09:07;;;;;;;2.17;1.52;;;19.90;49.80;;;;;;5135903;27;20038;-52
2020/12/03 05:11:46;;;;;;;2.78;1.60;;;19.90;49.80;;;;;;5109308;28;20035;-52
2020/12/03 05:14:27;;;;;;;3.60;1.75;;;19.90;49.80;;;;;;5131524;27;20046;-51
2020/12/03 05:17:03;;;;;;;3.05;2.20;;;19.90;49.80;;;;;;5106486;27;20078;-53
2020/12/03 05:19:40;;;;;;;5.38;4.18;;;19.90;49.80;;;;;;5127252;27;20084;-58
2020/12/03 05:22:26;;;;;;;7.22;6.47;;;19.90;49.80;;;;;;5115973;27;20026;-52
2020/12/03 05:24:51;;;;;;;10.02;9.02;;;19.90;49.80;;;;;;5119950;27;20027;-51
2020/12/03 05:27:25;;;;;;;13.38;12.05;;;19.90;49.80;;;;;;5128292;27;20042;-56
2020/12/03 05:29:52;;;;;;;16.25;14.65;;;19.90;49.80;;;;;;5113895;27;20027;-53
2020/12/03 05:32:18;;;;;;;18.38;16.65;;;19.90;49.80;;;;;;5115154;27;20393;-52
2020/12/03 05:34:43;;;;;;;22.35;20.15;;;19.90;49.90;;;;;;5127609;27;20131;-53
2020/12/03 05:37:14;;;;;;;24.58;22.23;;;19.90;49.90;;;;;;5128364;27;20672;-56
2020/12/03 05:39:50;;;;;;;26.60;24.05;;;19.90;49.90;;;;;;5125542;27;20027;-52
2020/12/03 05:42:23;;;;;;;29.33;26.50;;;19.80;49.90;;;;;;5108920;27;20044;-50
2020/12/03 05:44:53;;;;;;;29.42;26.67;;;19.80;49.90;;;;;;5137573;27;20031;-53
2020/12/03 05:47:37;;;;;;;31.02;28.02;;;19.80;49.90;;;;;;5140816;27;20031;-48
2020/12/03 05:50:13;;;;;;;30.08;27.30;;;19.80;50.00;;;;;;5132779;27;20071;-53
2020/12/03 05:52:38;;;;;;;31.75;28.65;;;19.80;50.00;;;;;;5108387;27;20020;-53
2020/12/03 05:55:11;;;;;;;31.30;28.40;;;19.80;50.10;;;;;;5132998;27;20141;-55
2020/12/03 05:57:45;;;;;;;31.75;28.80;;;19.80;50.10;;;;;;5119163;27;20108;-52
2020/12/03 06:00:18;;;;;;;31.90;28.80;;;19.80;50.10;;;;;;5122506;27;20027;-48
2020/12/03 06:02:56;;;;;;;31.77;28.88;;;19.80;50.10;;;;;;5123960;27;20389;-53
2020/12/03 06:05:27;;;;;;;33.70;30.55;;;19.80;50.20;;;;;;5117026;27;20481;-49
2020/12/03 06:08:05;;;;;;;33.78;30.58;;;19.80;50.30;;;;;;5127462;27;20122;-53
2020/12/03 06:10:38;;;;;;;30.98;28.08;;;19.80;50.20;;;;;;5113221;27;20053;-51
2020/12/03 06:13:25;;;;;;;30.02;27.33;;;19.80;50.30;;;;;;5102708;28;20024;-51
2020/12/03 06:16:00;;;;;;;30.75;27.95;;;19.80;50.30;;;;;;5112355;28;20481;-55
2020/12/03 06:18:56;;;;;;;28.45;25.85;;;19.80;50.30;;;;;;5125068;28;20136;-54
2020/12/03 06:21:36;;;;;;;27.95;25.38;;;19.80;50.20;;;;;;5114149;27;20450;-54
2020/12/03 06:24:20;;;;;;;27.55;25.02;;;19.80;50.30;;;;;;5114018;27;20031;-47
2020/12/03 06:27:18;;;;;;;26.65;24.13;;;19.80;50.30;;;;;;5111242;28;20473;-49
2020/12/03 06:30:03;;;;;;;26.27;23.77;;;19.80;50.30;;;;;;5108168;28;20069;-56
2020/12/03 06:32:38;;;;;;;25.38;23.00;;;19.80;50.40;;;;;;5115310;27;20268;-52
2020/12/03 06:35:14;;;;;;;24.60;22.30;;;19.80;50.40;;;;;;5123777;27;20518;-53
2020/12/03 06:37:50;;;;;;;24.02;21.77;;;19.80;50.40;;;;;;5116857;27;20031;-52
2020/12/03 06:40:28;;;;;;;23.73;21.45;;;19.80;50.40;;;;;;5109635;28;20122;-52
2020/12/03 06:43:06;;;;;;;23.57;21.33;;;19.80;50.40;;;;;;5114552;28;20154;-51
2020/12/03 06:45:56;;;;;;;22.58;20.48;;;19.80;50.40;;;;;;5121455;27;20624;-51
2020/12/03 06:48:46;;;;;;;21.30;19.30;;;19.70;50.40;;;;;;5125514;27;20136;-55
2020/12/03 06:51:35;;;;;;;21.05;19.02;;;19.70;50.40;;;;;;5107029;27;20023;-54
2020/12/03 06:54:27;;;;;;;19.05;17.25;;;19.70;50.30;;;;;;5129328;27;20193;-49
2020/12/03 06:57:41;;;;;;;19.95;18.10;;;19.70;50.20;;;;;;5106174;27;20421;-55
2020/12/03 07:00:21;;;;;;;18.63;16.92;;;19.70;50.20;;;;;;5083946;27;20452;-48
2020/12/03 07:03:05;;;;;;;17.60;15.93;;;19.70;50.10;;;;;;5118202;27;20036;-50
2020/12/03 07:06:02;;;;;;;17.83;16.13;;;19.70;50.00;;;;;;5110184;27;20870;-58
2020/12/03 07:08:46;;;;;;;16.52;15.02;;;19.70;50.00;;;;;;5139461;27;20050;-50
2020/12/03 07:11:41;;;;;;;16.13;14.60;;;19.70;49.90;;;;;;5118641;27;20026;-52
2020/12/03 07:14:21;;;;;;;15.48;13.98;;;19.70;49.80;;;;;;5113037;27;20020;-50
2020/12/03 07:16:47;;;;;;;15.40;13.90;;;19.70;49.80;;;;;;5114521;27;20396;-50
2020/12/03 07:19:31;;;;;;;14.25;12.85;;;19.70;49.80;;;;;;5122812;27;20080;-54
2020/12/03 07:22:13;;;;;;;13.68;12.38;;;19.70;49.70;;;;;;5118877;27;20175;-49
2020/12/03 07:24:42;;;;;;;12.68;11.48;;;19.70;49.70;;;;;;5115355;27;20041;-58
2020/12/03 07:27:48;;;;;;;13.23;11.97;;;19.70;49.70;;;;;;5132426;27;20038;-51
2020/12/03 07:30:13;;;;;;;12.70;11.50;;;19.70;49.70;;;;;;5140276;27;20085;-54
2020/12/03 07:32:57;;;;;;;12.88;11.68;;;19.70;49.70;;;;;;5123742;27;20058;-56
2020/12/03 07:36:01;;;;;;;11.70;10.50;;;19.60;49.60;;;;;;5115571;27;20164;-48
2020/12/03 07:38:45;;;;;;;11.30;10.20;;;19.60;49.60;;;;;;5120575;27;20122;-53
2020/12/03 07:41:33;;;;;;;10.75;9.68;;;19.60;49.60;;;;;;5122253;27;20036;-51
2020/12/03 07:44:26;;;;;;;14.52;13.13;;;19.60;49.60;;;;;;5115163;27;20118;-56
2020/12/03 07:46:54;;;;;;;14.77;13.27;;;19.70;50.60;;;;;;5123711;27;20029;-57
2020/12/03 07:49:43;;;;;;;12.85;11.63;;;19.90;51.00;;;;;;5133082;27;20353;-50
2020/12/03 07:52:28;;;;;;;10.17;9.27;;;20.20;50.80;;;;;;5126990;27;20043;-53
2020/12/03 07:55:20;;;;;;;10.55;9.50;;;20.40;50.70;;;;;;5119159;27;20260;-53
2020/12/03 07:57:59;;;;;;;8.88;7.97;;;20.50;50.60;;;;;;5144178;27;20034;-53
2020/12/03 08:00:24;;;;;;;8.05;7.25;;;20.80;50.60;;;;;;5139675;27;20719;-52
2020/12/03 08:02:59;;;;;;;6.72;6.00;;;21.00;50.40;;;;;;5114386;27;20024;-53
2020/12/03 08:05:39;;;;;;;7.63;6.30;;;21.20;50.30;;;;;;5123278;27;20035;-49
2020/12/03 08:08:23;;;;;;;4.90;4.30;;;21.40;50.00;;;;;;5132225;27;20378;-59
2020/12/03 08:10:54;;;;;;;4.00;3.47;;;21.50;50.10;;;;;;5122400;27;20051;-58
2020/12/03 08:13:29;;;;;;;4.30;3.60;;;21.40;49.90;;;;;;5111469;27;20084;-53
2020/12/03 08:16:12;;;;;;;4.60;3.38;;;21.30;50.10;;;;;;5128765;27;20026;-51
2020/12/03 08:19:01;;;;;;;4.72;3.90;;;21.30;50.30;;;;;;5126306;27;20322;-52
2020/12/03 08:21:38;;;;;;;5.63;4.43;;;21.20;50.40;;;;;;5118874;27;20284;-55
2020/12/03 08:24:03;;;;;;;4.05;3.35;;;21.40;51.00;;;;;;5136197;27;20391;-51
2020/12/03 08:26:29;;;;;;;4.10;3.08;;;21.60;50.60;;;;;;5136987;27;20031;-54
2020/12/03 08:28:55;;;;;;;3.83;2.85;;;21.60;50.40;;;;;;5138063;27;20100;-55
2020/12/03 08:31:21;;;;;;;3.80;2.90;;;21.60;50.50;;;;;;5120375;27;20033;-50
2020/12/03 08:33:52;;;;;;;5.95;5.32;;;21.50;50.50;;;;;;5120768;27;20020;-55
2020/12/03 08:36:18;;;;;;;7.88;6.82;;;21.50;49.10;;;;;;5115108;27;20031;-55
2020/12/03 08:38:51;;;;;;;8.00;6.13;;;21.60;49.10;;;;;;5115735;27;20458;-56
2020/12/03 08:41:19;;;;;;;5.20;4.25;;;21.90;48.90;;;;;;5119530;27;20118;-56
2020/12/03 08:43:51;;;;;;;4.43;3.80;;;21.90;48.70;;;;;;5118466;27;20030;-56
2020/12/03 08:48:46;;;;;;;4.18;3.42;;;21.90;49.00;;;;;;5132111;27;20019;-52
2020/12/03 08:51:13;;;;;;;6.90;4.43;;;21.80;49.10;;;;;;5123856;27;20485;-53
2020/12/03 08:53:44;;;;;;;4.40;3.60;;;22.00;49.70;;;;;;5128151;27;20409;-58
2020/12/03 08:56:15;;;;;;;4.47;3.47;;;22.30;49.40;;;;;;5122215;27;20059;-53
2020/12/03 08:58:49;;;;;;;3.97;3.13;;;22.30;49.20;;;;;;5134695;27;20083;-55
2020/12/03 09:01:18;;;;;;;3.40;2.80;;;22.30;49.30;;;;;;5120481;27;20035;-54
2020/12/03 09:03:45;;;;;;;3.40;2.70;;;22.20;49.30;;;;;;5117224;27;20446;-50
2020/12/03 09:06:12;;;;;;;4.78;3.72;;;22.20;49.60;;;;;;5127499;27;20504;-51
2020/12/03 09:08:38;;;;;;;3.85;3.28;;;22.20;50.10;;;;;;5130299;27;20077;-52
2020/12/03 09:11:04;;;;;;;3.35;2.60;;;22.50;50.00;;;;;;5127206;27;20051;-52
2020/12/03 09:13:30;;;;;;;3.00;2.33;;;22.60;49.60;;;;;;5113698;27;20019;-54
2020/12/03 09:15:58;;;;;;;4.00;2.63;;;22.60;49.60;;;;;;5131685;27;20477;-49
2020/12/03 09:18:24;;;;;;;3.08;2.30;;;22.60;49.60;;;;;;5118908;27;20031;-52
2020/12/03 09:20:49;;;;;;;2.90;2.10;;;22.50;49.70;;;;;;5128912;27;20042;-56
2020/12/03 09:23:22;;;;;;;2.67;2.17;;;22.50;49.90;;;;;;5107857;27;20047;-53
2020/12/03 09:25:48;;;;;;;2.75;2.10;;;22.60;50.20;;;;;;5123264;27;20076;-49
2020/12/03 09:28:15;;;;;;;3.38;2.25;;;22.60;50.10;;;;;;5147495;27;20454;-54
2020/12/03 09:30:45;;;;;;;2.83;2.10;;;22.60;50.10;;;;;;5109829;27;20358;-55
2020/12/03 09:33:17;;;;;;;3.20;2.00;;;22.60;50.00;;;;;;5133532;27;20046;-56
2020/12/03 09:35:45;;;;;;;2.75;2.03;;;22.60;50.10;;;;;;5126897;27;20039;-53
2020/12/03 09:38:13;;;;;;;3.25;2.17;;;22.60;50.20;;;;;;5109312;27;20339;-51
2020/12/03 09:40:44;;;;;;;2.58;1.90;;;22.60;50.20;;;;;;5126183;27;20416;-54
2020/12/03 09:43:11;;;;;;;3.38;2.45;;;22.60;50.20;;;;;;5121645;27;20035;-56
2020/12/03 09:45:40;;;;;;;3.17;2.05;;;22.70;50.80;;;;;;5129815;27;20080;-52
2020/12/03 09:48:14;;;;;;;3.38;1.90;;;22.90;50.30;;;;;;5118554;27;20092;-53
2020/12/03 09:50:41;;;;;;;2.95;1.90;;;22.90;50.10;;;;;;5123113;27;20106;-54
2020/12/03 09:53:06;;;;;;;2.80;2.00;;;22.90;50.20;;;;;;5117523;27;20095;-56
2020/12/03 09:55:32;;;;;;;2.60;1.70;;;22.90;50.10;;;;;;5138937;27;20453;-54
2020/12/03 09:57:58;;;;;;;2.60;2.00;;;22.80;50.20;;;;;;5127395;27;20087;-47
2020/12/03 10:00:39;;;;;;;2.85;2.00;;;22.80;50.20;;;;;;5124514;27;20131;-52
2020/12/03 10:03:32;;;;;;;2.58;1.77;;;22.80;50.20;;;;;;5117587;27;20518;-54
2020/12/03 10:06:19;;;;;;;2.55;1.83;;;22.80;50.50;;;;;;5110400;27;20023;-54
2020/12/03 10:09:03;;;;;;;2.53;1.73;;;22.90;50.80;;;;;;5144686;27;20448;-55
2020/12/03 10:11:43;;;;;;;2.70;1.60;;;23.10;50.40;;;;;;5120786;27;20114;-57
2020/12/03 10:14:33;;;;;;;2.10;1.60;;;23.10;50.60;;;;;;5122576;27;20046;-58
2020/12/03 10:17:06;;;;;;;2.40;1.63;;;23.10;50.50;;;;;;5126666;27;20023;-57
2020/12/03 10:19:41;;;;;;;2.40;1.60;;;23.10;50.50;;;;;;5127243;27;20083;-53
2020/12/03 10:22:18;;;;;;;2.10;1.50;;;23.00;50.40;;;;;;5112789;28;20030;-54
2020/12/03 10:24:51;;;;;;;1.92;1.40;;;23.10;50.40;;;;;;5130268;27;20031;-57
2020/12/03 10:27:22;;;;;;;2.50;1.75;;;23.10;50.50;;;;;;5130131;27;20058;-55
2020/12/03 10:30:02;;;;;;;2.33;1.70;;;23.10;50.50;;;;;;5126042;27;20354;-59
2020/12/03 10:32:28;;;;;;;;;;;23.00;50.50;;;;;;5117891;28;20130;-53
2020/12/03 10:34:54;;;;;;;2.70;1.77;;;23.00;50.60;;;;;;5120749;27;20030;-56
2020/12/03 10:37:41;;;;;;;2.70;1.55;;;23.20;50.70;;;;;;5125805;27;20059;-53
2020/12/03 10:40:18;;;;;;;1.92;1.40;;;23.30;50.60;;;;;;5125728;27;21109;-59
2020/12/03 10:42:48;;;;;;;2.95;1.40;;;23.30;50.50;;;;;;5141645;27;20097;-55
2020/12/03 10:45:18;;;;;;;2.40;1.55;;;23.30;50.50;;;;;;5127611;27;20039;-54
2020/12/03 10:47:48;;;;;;;2.50;1.40;;;23.30;50.40;;;;;;5107505;28;20175;-58
2020/12/03 10:50:17;;;;;;;2.28;1.60;;;23.30;50.40;;;;;;5113275;27;20494;-57
2020/12/03 10:52:44;;;;;;;1.77;1.30;;;23.30;50.40;;;;;;5124153;27;20035;-54
2020/12/03 10:55:15;;;;;;;1.80;1.40;;;23.30;50.40;;;;;;5129014;27;20102;-56
2020/12/03 10:57:50;;;;;;;1.92;1.40;;;23.30;50.40;;;;;;5129955;27;20562;-56
2020/12/03 11:00:20;;;;;;;2.53;1.70;;;23.30;50.50;;;;;;5123332;27;20044;-54
2020/12/03 11:02:46;;;;;;;2.15;1.60;;;23.30;50.80;;;;;;5122753;27;20421;-57
2020/12/03 11:05:13;;;;;;;2.00;1.30;;;23.40;50.80;;;;;;5125885;27;20422;-55
2020/12/03 11:07:40;;;;;;;2.00;1.40;;;23.40;50.40;;;;;;5128928;27;20023;-53
2020/12/03 11:10:06;;;;;;;2.22;1.30;;;23.40;50.60;;;;;;5137836;27;20034;-54
2020/12/03 11:12:33;;;;;;;1.92;1.40;;;23.40;50.40;;;;;;5127774;27;20489;-56
2020/12/03 11:15:05;;;;;;;2.10;1.48;;;23.40;50.60;;;;;;5122067;27;20018;-58
2020/12/03 11:17:30;;;;;;;2.03;1.42;;;23.40;50.50;;;;;;5109370;27;20027;-57
2020/12/03 11:20:03;;;;;;;2.05;1.40;;;23.40;50.40;;;;;;5110584;27;20507;-59
2020/12/03 11:22:40;;;;;;;1.67;1.17;;;23.40;50.30;;;;;;5133281;27;20030;-58
2020/12/03 11:25:08;;;;;;;2.05;1.50;;;23.40;50.40;;;;;;5129796;27;20110;-59
2020/12/03 11:27:36;;;;;;;1.90;1.35;;;23.40;50.50;;;;;;5112478;27;20354;-59
2020/12/03 11:30:18;;;;;;;2.65;1.40;;;23.50;51.00;;;;;;5114187;27;20098;-54
2020/12/03 11:32:55;;;;;;;1.65;1.10;;;23.60;50.60;;;;;;5136906;27;20093;-57
2020/12/03 11:35:24;;;;;;;1.83;1.30;;;23.70;50.60;;;;;;5118392;27;20369;-57
2020/12/03 11:37:52;;;;;;;1.95;1.38;;;23.70;50.30;;;;;;5129453;27;20103;-57
2020/12/03 11:40:40;;;;;;;1.90;1.25;;;23.60;50.60;;;;;;5122924;27;20071;-59
2020/12/03 11:50:56;;;;;;;2.08;1.30;;;23.60;50.40;;;;;;5119950;27;20023;-58
2020/12/03 11:53:22;;;;;;;1.70;1.10;;;23.60;50.60;;;;;;5130688;27;20362;-54
2020/12/03 11:55:47;;;;;;;1.98;1.40;;;23.60;50.40;;;;;;5129099;27;20477;-59
2020/12/03 11:58:13;;;;;;;1.75;1.30;;;23.70;51.00;;;;;;5121999;27;20063;-57
2020/12/03 12:00:39;;;;;;;2.42;1.20;;;23.80;50.70;;;;;;5118420;27;20122;-57
2020/12/03 12:03:09;;;;;;;1.77;1.20;;;23.90;50.40;;;;;;5117111;27;20034;-55
2020/12/03 12:08:21;;;;;;;2.00;1.25;;;23.80;50.30;;;;;;5122648;27;20039;-54
2020/12/03 12:13:25;;;;;;;2.22;1.30;;;23.80;50.20;;;;;;5122146;27;20198;-54
2020/12/03 12:15:50;;;;;;;1.80;1.25;;;23.80;50.10;;;;;;5108476;27;20185;-57
2020/12/03 12:18:17;;;;;;;1.83;1.23;;;23.80;50.30;;;;;;5136394;27;20022;-55
2020/12/03 12:20:42;;;;;;;2.08;1.30;;;23.80;50.30;;;;;;5109401;27;20034;-58
2020/12/03 12:23:08;;;;;;;1.35;1.10;;;23.80;50.20;;;;;;5127769;27;20130;-60
2020/12/03 12:25:34;;;;;;;1.85;1.20;;;23.80;50.60;;;;;;5125123;27;20077;-57
2020/12/03 12:28:00;;;;;;;1.80;1.17;;;23.90;50.60;;;;;;5133310;27;20031;-58
2020/12/03 12:30:26;;;;;;;2.17;1.20;;;24.00;50.50;;;;;;5116464;27;20129;-58
2020/12/03 12:32:52;;;;;;;1.65;1.20;;;24.00;50.20;;;;;;5121996;27;20106;-58
2020/12/03 12:35:17;;;;;;;2.72;2.00;;;24.00;50.10;;;;;;5116423;27;20023;-59
2020/12/03 12:37:43;;;;;;;3.70;3.00;;;24.00;46.80;;;;;;5105791;27;20095;-58
2020/12/03 12:40:08;;;;;;;3.40;2.92;;;23.90;44.80;;;;;;5133544;27;20371;-58
2020/12/03 12:42:35;;;;;;;2.80;2.20;;;23.80;44.60;;;;;;5109928;27;20168;-60
2020/12/03 12:45:00;;;;;;;2.88;2.15;;;23.70;45.60;;;;;;5112664;27;20481;-57
2020/12/03 12:47:26;;;;;;;3.00;2.25;;;23.70;46.20;;;;;;5121203;27;20027;-58
2020/12/03 12:49:52;;;;;;;2.50;2.00;;;23.70;46.60;;;;;;5126816;27;20417;-57
2020/12/03 12:52:18;;;;;;;2.33;1.83;;;23.70;47.10;;;;;;5114579;27;20028;-60
2020/12/03 12:54:44;;;;;;;2.60;2.08;;;23.80;47.70;;;;;;5113037;27;20107;-59
2020/12/03 12:57:10;;;;;;;2.67;1.90;;;23.90;47.60;;;;;;5114837;27;20960;-56
2020/12/03 12:59:35;;;;;;;4.35;2.05;;;24.00;47.70;;;;;;5128193;27;20102;-58
2020/12/03 13:02:01;;;;;;;3.20;2.10;;;24.00;47.80;;;;;;5126587;27;20339;-58
2020/12/03 13:04:26;;;;;;;2.55;1.77;;;23.90;47.80;;;;;;5109057;27;20036;-57
2020/12/03 13:06:54;;;;;;;2.38;1.70;;;23.90;48.00;;;;;;5120169;27;20113;-58
2020/12/03 13:09:20;;;;;;;2.50;1.70;;;23.90;48.10;;;;;;5128110;27;20029;-55
2020/12/03 13:11:45;;;;;;;2.50;1.73;;;23.90;48.40;;;;;;5125058;27;20026;-59
2020/12/03 13:14:11;;;;;;;2.67;1.80;;;23.90;48.40;;;;;;5109075;27;20087;-54
2020/12/03 13:16:38;;;;;;;2.70;2.00;;;23.90;48.50;;;;;;5110805;27;20124;-57
2020/12/03 13:19:05;;;;;;;2.53;1.75;;;23.90;48.60;;;;;;5124033;27;20102;-58
2020/12/03 13:21:32;;;;;;;2.10;1.60;;;23.90;48.60;;;;;;5127962;27;20031;-57